Time;durP1;ratioP1;P1;durP2;ratioP2;P2;SDS_P1;SDS_P2;PMS_P1;PMS_P2;Temp;Humidity;BMP_temperature;BMP_pressure;BME280_temperature;BME280_humidity;BME280_pressure;Samples;Min_cycle;Max_cycle;Signal;HPM_P1;HPM_P2
2022/03/01 00:03:38;;;;;;;24.13;11.32;;;3.00;99.90;;;;;;12535221;28;20140;-37
2022/03/01 00:09:40;;;;;;;23.60;11.50;;;3.00;99.90;;;;;;12528393;28;20049;-40
2022/03/01 00:15:42;;;;;;;27.30;11.20;;;3.00;99.90;;;;;;12537034;28;20052;-36
2022/03/01 00:21:44;;;;;;;21.58;11.10;;;2.90;99.90;;;;;;12536920;28;20483;-36
2022/03/01 00:27:46;;;;;;;29.65;13.90;;;2.80;99.90;;;;;;12463916;28;20139;-40
2022/03/01 00:33:48;;;;;;;24.95;11.75;;;2.70;99.90;;;;;;12433236;28;20077;-36
2022/03/01 00:39:50;;;;;;;26.60;12.48;;;2.60;99.90;;;;;;12434551;28;20605;-40
2022/03/01 00:45:53;;;;;;;25.30;12.52;;;2.60;99.90;;;;;;12434806;28;20621;-36
2022/03/01 00:51:55;;;;;;;24.45;11.68;;;2.60;99.90;;;;;;12425458;28;20582;-36
2022/03/01 00:57:57;;;;;;;25.65;13.07;;;2.50;99.90;;;;;;12429261;28;20080;-39
2022/03/01 01:03:59;;;;;;;25.33;11.90;;;2.50;99.90;;;;;;12433867;28;20199;-36
2022/03/01 01:10:01;;;;;;;27.08;12.30;;;2.40;99.90;;;;;;12431086;28;20062;-37
2022/03/01 01:16:03;;;;;;;25.13;12.27;;;2.30;99.90;;;;;;12432534;28;20318;-36
2022/03/01 01:28:26;;;;;;;23.95;11.70;;;2.30;99.90;;;;;;12435036;28;20573;-36
2022/03/01 01:34:28;;;;;;;23.30;11.80;;;2.20;99.90;;;;;;12431964;28;20160;-40
2022/03/01 01:40:33;;;;;;;25.40;12.18;;;2.00;99.90;;;;;;12436739;28;20165;-36
2022/03/01 01:46:35;;;;;;;21.02;11.40;;;1.90;99.90;;;;;;12437912;28;20148;-41
2022/03/01 01:52:37;;;;;;;22.23;11.40;;;1.70;99.90;;;;;;12433394;28;20068;-36
2022/03/01 01:58:39;;;;;;;25.80;12.93;;;1.60;99.90;;;;;;12444729;28;20100;-40
2022/03/01 02:04:41;;;;;;;24.00;12.25;;;1.50;99.90;;;;;;12440586;28;20046;-41
2022/03/01 02:10:43;;;;;;;25.80;11.93;;;1.50;99.90;;;;;;12436804;28;20575;-40
2022/03/01 02:16:45;;;;;;;24.23;12.05;;;1.50;99.90;;;;;;12441689;28;20141;-37
2022/03/01 02:22:53;;;;;;;26.73;11.90;;;1.40;99.90;;;;;;12436591;28;20077;-42
2022/03/01 02:28:54;;;;;;;24.83;12.55;;;1.30;99.90;;;;;;12524536;28;20137;-37
2022/03/01 02:34:56;;;;;;;28.23;13.30;;;1.50;99.90;;;;;;12535703;28;20070;-36
2022/03/01 02:40:58;;;;;;;24.45;12.38;;;1.50;99.90;;;;;;12540981;28;20488;-36
2022/03/01 02:47:01;;;;;;;24.45;12.10;;;1.50;99.90;;;;;;12542462;28;20093;-39
2022/03/01 02:53:03;;;;;;;28.40;13.60;;;1.60;99.90;;;;;;12541582;28;20489;-37
2022/03/01 02:59:05;;;;;;;23.83;12.85;;;1.50;99.90;;;;;;12541110;28;20067;-37
2022/03/01 03:05:07;;;;;;;26.25;12.20;;;1.60;99.90;;;;;;12540484;28;20071;-40
2022/03/01 03:11:09;;;;;;;25.83;12.40;;;1.60;99.90;;;;;;12536522;28;20093;-40
2022/03/01 03:17:11;;;;;;;24.45;11.77;;;1.60;99.90;;;;;;12538327;28;20063;-43
2022/03/01 03:23:13;;;;;;;26.00;12.35;;;1.60;99.90;;;;;;12535501;28;20060;-40
2022/03/01 03:29:16;;;;;;;24.98;11.80;;;1.60;99.90;;;;;;12532718;28;20057;-40
2022/03/01 03:35:18;;;;;;;23.42;11.40;;;1.50;99.90;;;;;;12537805;28;20061;-40
2022/03/01 03:41:21;;;;;;;25.63;12.48;;;1.50;99.90;;;;;;12536737;28;20067;-36
2022/03/01 03:47:25;;;;;;;25.35;12.90;;;1.50;99.90;;;;;;12535440;28;20045;-40
2022/03/01 03:53:27;;;;;;;27.98;12.85;;;1.60;99.90;;;;;;12535012;28;20048;-40
2022/03/01 03:59:29;;;;;;;28.45;13.00;;;1.50;99.90;;;;;;12537399;28;20053;-40
2022/03/01 04:05:31;;;;;;;26.10;12.50;;;1.50;99.90;;;;;;12536101;28;20489;-36
2022/03/01 04:11:33;;;;;;;25.38;12.38;;;1.40;99.90;;;;;;12533484;28;20056;-41
2022/03/01 04:17:35;;;;;;;29.60;12.65;;;1.50;99.90;;;;;;12512855;28;20075;-37
2022/03/01 04:23:38;;;;;;;22.83;11.85;;;1.50;99.90;;;;;;12534737;28;20168;-42
2022/03/01 04:29:40;;;;;;;27.58;12.52;;;1.60;99.90;;;;;;12533026;28;20883;-36
2022/03/01 04:35:42;;;;;;;25.98;11.70;;;1.50;99.90;;;;;;12532734;28;20493;-36
2022/03/01 04:41:44;;;;;;;24.85;12.82;;;1.50;99.90;;;;;;12535056;28;20103;-40
2022/03/01 04:47:46;;;;;;;24.20;12.00;;;1.40;99.90;;;;;;12537471;28;20508;-36
2022/03/01 04:53:49;;;;;;;25.55;12.55;;;1.50;99.90;;;;;;12534514;28;20053;-36
2022/03/01 04:59:51;;;;;;;23.70;11.50;;;1.40;99.90;;;;;;12530833;28;20092;-40
2022/03/01 05:05:53;;;;;;;23.85;10.75;;;1.30;99.90;;;;;;12531771;28;20473;-40
2022/03/01 05:11:55;;;;;;;22.48;11.63;;;1.30;99.90;;;;;;12530770;28;20050;-41
2022/03/01 05:17:58;;;;;;;27.13;12.45;;;1.30;99.90;;;;;;12533795;28;20105;-41
2022/03/01 05:24:00;;;;;;;24.42;11.77;;;1.20;99.90;;;;;;12532362;28;20093;-39
2022/03/01 05:30:04;;;;;;;26.48;11.25;;;1.20;99.90;;;;;;12530720;28;20131;-36
2022/03/01 05:36:05;;;;;;;24.60;12.88;;;1.20;99.90;;;;;;12532502;28;20106;-41
2022/03/01 05:42:08;;;;;;;23.70;10.35;;;1.10;99.90;;;;;;12529678;28;20464;-36
2022/03/01 05:48:10;;;;;;;23.48;11.07;;;1.10;99.90;;;;;;12530356;28;20053;-42
2022/03/01 05:54:12;;;;;;;23.92;11.70;;;1.20;99.90;;;;;;12533821;28;20446;-36
2022/03/01 06:00:17;;;;;;;25.33;11.43;;;1.20;99.90;;;;;;12530242;28;20053;-36
2022/03/01 06:06:19;;;;;;;21.50;11.05;;;1.20;99.90;;;;;;12518224;28;20164;-39
2022/03/01 06:12:21;;;;;;;22.98;11.35;;;1.20;99.90;;;;;;12527079;28;20126;-39
2022/03/01 06:18:23;;;;;;;27.65;12.68;;;1.10;99.90;;;;;;12528868;28;20052;-36
2022/03/01 06:24:25;;;;;;;23.10;11.43;;;1.10;99.90;;;;;;12515722;28;20065;-40
2022/03/01 06:30:27;;;;;;;24.80;10.75;;;1.10;99.90;;;;;;12430866;28;20050;-42
2022/03/01 06:36:29;;;;;;;27.33;10.73;;;1.20;99.90;;;;;;12435258;28;20057;-36
2022/03/01 06:42:30;;;;;;;23.52;10.85;;;1.20;99.90;;;;;;12439453;28;20057;-36
2022/03/01 06:48:32;;;;;;;22.60;10.60;;;1.20;99.90;;;;;;12443745;28;20478;-36
2022/03/01 06:54:34;;;;;;;23.58;10.68;;;1.20;99.90;;;;;;12439642;28;20114;-36
2022/03/01 07:00:37;;;;;;;21.55;10.60;;;1.30;99.90;;;;;;12436209;28;20053;-37
2022/03/01 07:06:38;;;;;;;23.10;10.02;;;1.30;99.90;;;;;;12436279;28;20049;-41
2022/03/01 07:12:41;;;;;;;21.35;10.68;;;1.50;99.90;;;;;;12437559;28;20096;-40
2022/03/01 07:18:44;;;;;;;21.58;9.40;;;1.70;99.90;;;;;;12437242;28;20049;-36
2022/03/01 07:24:46;;;;;;;20.73;9.40;;;1.90;99.90;;;;;;12437052;28;20119;-36
2022/03/01 07:30:48;;;;;;;19.25;9.90;;;2.00;99.90;;;;;;12434896;28;20072;-40
2022/03/01 07:36:50;;;;;;;21.20;10.32;;;2.10;99.90;;;;;;12433739;28;20049;-36
2022/03/01 07:42:53;;;;;;;20.65;9.25;;;2.30;99.90;;;;;;12434520;28;20054;-36
2022/03/01 07:48:55;;;;;;;17.33;9.63;;;2.60;99.90;;;;;;12436772;28;20062;-42
2022/03/01 07:54:56;;;;;;;19.15;9.20;;;2.90;99.90;;;;;;12432727;28;20495;-36
2022/03/01 08:00:59;;;;;;;16.85;9.30;;;3.10;99.90;;;;;;12436970;28;20119;-40
2022/03/01 08:07:01;;;;;;;17.65;8.43;;;3.30;99.90;;;;;;12433614;28;20487;-36
2022/03/01 08:13:03;;;;;;;17.17;9.02;;;3.20;99.90;;;;;;12431250;28;20136;-40
2022/03/01 08:19:05;;;;;;;17.38;8.35;;;2.90;99.90;;;;;;12435415;28;20056;-41
2022/03/01 08:25:08;;;;;;;18.67;9.05;;;2.70;99.90;;;;;;12456694;28;20061;-36
2022/03/01 08:31:10;;;;;;;17.92;9.38;;;2.70;99.90;;;;;;12530290;28;20044;-37
2022/03/01 08:37:12;;;;;;;17.40;8.73;;;2.90;99.90;;;;;;12534193;28;20056;-40
2022/03/01 08:43:14;;;;;;;19.52;9.00;;;3.30;99.90;;;;;;12533191;28;20056;-38
2022/03/01 08:49:16;;;;;;;16.85;9.10;;;3.70;99.90;;;;;;12534017;28;20071;-37
2022/03/01 08:55:18;;;;;;;18.55;8.95;;;4.20;99.90;;;;;;12529819;28;20048;-37
2022/03/01 09:01:21;;;;;;;13.98;7.60;;;4.50;99.90;;;;;;12533527;28;20060;-37
2022/03/01 09:07:24;;;;;;;16.20;7.65;;;4.90;99.90;;;;;;12530753;28;20052;-38
2022/03/01 09:13:27;;;;;;;17.55;8.73;;;5.30;99.90;;;;;;12534044;28;20044;-36
2022/03/01 09:19:29;;;;;;;18.73;8.73;;;5.60;99.90;;;;;;12530241;28;20436;-40
2022/03/01 09:25:31;;;;;;;17.50;9.48;;;5.40;99.90;;;;;;12532636;28;20044;-37
2022/03/01 09:31:32;;;;;;;16.05;8.18;;;5.50;99.90;;;;;;12531091;28;20067;-37
2022/03/01 09:37:34;;;;;;;16.25;8.65;;;5.70;99.90;;;;;;12529739;28;20106;-37
2022/03/01 09:43:38;;;;;;;15.95;7.93;;;5.70;99.90;;;;;;12528515;28;20052;-37
2022/03/01 09:49:40;;;;;;;14.93;8.20;;;5.60;99.90;;;;;;12514308;28;20049;-37
2022/03/01 09:55:47;;;;;;;18.75;8.65;;;5.60;99.90;;;;;;12531078;28;20131;-36
2022/03/01 10:01:51;;;;;;;17.27;8.63;;;5.80;99.90;;;;;;12526554;28;20052;-41
2022/03/01 10:07:55;;;;;;;16.58;8.57;;;5.70;99.90;;;;;;12525794;28;20045;-40
2022/03/01 10:13:58;;;;;;;13.93;7.60;;;5.80;99.90;;;;;;12525184;28;20048;-36
2022/03/01 10:20:08;;;;;;;15.05;8.02;;;6.10;99.90;;;;;;12536180;28;20057;-40
2022/03/01 10:26:16;;;;;;;16.55;8.20;;;6.20;99.90;;;;;;12540724;28;20114;-36
2022/03/01 10:32:18;;;;;;;16.63;8.55;;;6.40;99.90;;;;;;12536122;28;20110;-41
2022/03/01 10:38:23;;;;;;;13.85;8.20;;;6.60;99.90;;;;;;12538987;28;20052;-36
2022/03/01 10:44:28;;;;;;;13.75;7.82;;;6.40;99.90;;;;;;12520794;28;20102;-36
2022/03/01 10:50:32;;;;;;;16.67;7.95;;;6.80;99.90;;;;;;12530287;28;20048;-36
2022/03/01 10:56:37;;;;;;;15.50;8.57;;;7.10;99.90;;;;;;12530806;28;20354;-41
2022/03/01 11:02:39;;;;;;;14.65;8.00;;;7.20;99.90;;;;;;12536480;28;20151;-41
2022/03/01 11:08:41;;;;;;;16.13;9.35;;;7.50;99.90;;;;;;12535480;28;20097;-40
2022/03/01 11:14:50;;;;;;;16.80;8.50;;;6.80;99.90;;;;;;12516613;28;20478;-36
2022/03/01 11:20:55;;;;;;;16.20;8.70;;;6.90;99.90;;;;;;12533778;28;20589;-40
2022/03/01 11:27:07;;;;;;;16.23;8.80;;;7.00;99.90;;;;;;12530361;28;21986;-36
2022/03/01 11:33:09;;;;;;;16.48;9.68;;;6.80;99.90;;;;;;12532351;28;20076;-41
2022/03/01 11:39:14;;;;;;;19.13;8.65;;;6.80;99.90;;;;;;12536151;28;20546;-41
2022/03/01 11:45:16;;;;;;;17.27;9.38;;;7.20;99.90;;;;;;12538263;28;20421;-36
2022/03/01 11:51:31;;;;;;;17.67;8.82;;;7.40;99.90;;;;;;12536838;28;20061;-37
2022/03/01 11:57:36;;;;;;;14.43;8.57;;;7.30;99.90;;;;;;12536444;28;20065;-40
2022/03/01 12:03:39;;;;;;;14.90;8.07;;;7.60;99.90;;;;;;12534523;28;20053;-37
2022/03/01 12:09:41;;;;;;;13.20;8.13;;;7.80;99.90;;;;;;12536073;28;20792;-42
2022/03/01 12:15:54;;;;;;;18.48;8.93;;;7.40;99.90;;;;;;12533216;28;20060;-36
2022/03/01 12:21:58;;;;;;;15.80;8.73;;;7.60;99.90;;;;;;12534584;28;20539;-37
2022/03/01 12:28:02;;;;;;;21.25;8.95;;;7.90;99.90;;;;;;12534472;28;20080;-37
2022/03/01 12:34:09;;;;;;;16.15;8.45;;;8.40;99.90;;;;;;12532853;28;20079;-41
2022/03/01 12:40:12;;;;;;;15.90;8.90;;;8.50;99.90;;;;;;12534314;28;20093;-42
2022/03/01 12:46:15;;;;;;;16.27;8.27;;;8.60;99.90;;;;;;12531583;28;20052;-37
2022/03/01 12:52:20;;;;;;;16.70;8.98;;;8.40;99.90;;;;;;12529987;28;20052;-41
2022/03/01 12:58:26;;;;;;;14.40;8.60;;;8.50;99.90;;;;;;12530779;28;20134;-38
2022/03/01 13:04:30;;;;;;;17.67;8.60;;;8.50;99.90;;;;;;12529261;28;20101;-41
2022/03/01 13:10:34;;;;;;;14.33;8.03;;;8.50;99.90;;;;;;12529196;28;20049;-40
2022/03/01 13:16:38;;;;;;;;;;;8.30;99.90;;;;;;12532815;28;20076;-43
2022/03/01 13:22:40;;;;;;;15.40;8.33;;;8.30;99.90;;;;;;12531113;28;20051;-37
2022/03/01 13:28:42;;;;;;;13.60;8.18;;;8.00;99.90;;;;;;12511180;28;20056;-41
2022/03/01 13:34:46;;;;;;;16.10;8.50;;;8.20;99.90;;;;;;12528980;28;20052;-41
2022/03/01 13:40:51;;;;;;;16.35;8.00;;;8.00;99.90;;;;;;12533618;28;20131;-41
2022/03/01 13:47:11;;;;;;;18.95;7.88;;;7.90;99.90;;;;;;12534430;28;20045;-41
2022/03/01 13:53:23;;;;;;;14.43;8.77;;;7.90;99.90;;;;;;12535940;28;20273;-41
2022/03/01 13:59:25;;;;;;;12.65;8.13;;;8.00;99.90;;;;;;12540944;28;20482;-41
2022/03/01 14:05:29;;;;;;;13.93;7.93;;;8.10;99.90;;;;;;12541484;28;20058;-37
2022/03/01 14:11:30;;;;;;;13.93;8.45;;;8.10;99.90;;;;;;12536686;28;20048;-40
2022/03/01 14:17:33;;;;;;;13.77;8.30;;;8.40;99.90;;;;;;12540482;28;20052;-38
2022/03/01 14:23:36;;;;;;;13.55;8.05;;;8.40;99.90;;;;;;12536788;28;20058;-41
2022/03/01 14:29:39;;;;;;;16.53;8.33;;;8.30;99.90;;;;;;12538243;28;20048;-37
2022/03/01 14:35:41;;;;;;;14.90;8.13;;;8.10;99.90;;;;;;12537746;28;20053;-41
2022/03/01 14:41:43;;;;;;;13.38;7.80;;;8.20;99.90;;;;;;12540976;28;20425;-36
2022/03/01 14:47:45;;;;;;;15.45;7.82;;;8.30;99.90;;;;;;12540832;28;20080;-37
2022/03/01 14:53:47;;;;;;;14.52;8.02;;;8.40;99.90;;;;;;12536579;28;20076;-39
2022/03/01 14:59:49;;;;;;;13.82;7.45;;;8.40;99.90;;;;;;12536340;28;20087;-44
2022/03/01 15:05:52;;;;;;;13.25;7.88;;;8.50;99.90;;;;;;12531791;28;20048;-37
2022/03/01 15:11:54;;;;;;;16.83;7.72;;;8.20;99.90;;;;;;12532600;28;20051;-37
2022/03/01 15:17:56;;;;;;;14.05;7.95;;;8.30;99.90;;;;;;12532166;28;20056;-38
2022/03/01 15:24:01;;;;;;;19.30;7.28;;;8.30;99.90;;;;;;12521706;28;20048;-42
2022/03/01 15:30:06;;;;;;;14.45;7.50;;;8.20;99.90;;;;;;12532353;28;20044;-37
2022/03/01 15:36:07;;;;;;;14.73;7.45;;;8.10;99.90;;;;;;12534699;28;20522;-42
2022/03/01 15:42:11;;;;;;;15.48;8.18;;;7.90;99.90;;;;;;12532900;28;20159;-41
2022/03/01 15:48:13;;;;;;;15.37;7.63;;;7.90;99.90;;;;;;12535888;28;20044;-41
2022/03/01 15:54:16;;;;;;;15.80;7.95;;;7.90;99.90;;;;;;12523950;28;20140;-37
2022/03/01 16:00:19;;;;;;;12.43;7.35;;;7.80;99.90;;;;;;12528347;28;20467;-36
2022/03/01 16:06:21;;;;;;;16.30;7.65;;;7.60;99.90;;;;;;12502028;28;20147;-37
2022/03/01 16:12:25;;;;;;;17.30;8.35;;;7.50;99.90;;;;;;12522495;28;20068;-37
2022/03/01 16:18:26;;;;;;;14.75;7.75;;;7.30;99.90;;;;;;12538045;28;20055;-40
2022/03/01 16:24:28;;;;;;;16.00;8.73;;;7.20;99.90;;;;;;12530904;28;20057;-41
2022/03/01 16:30:30;;;;;;;12.32;7.28;;;7.00;99.90;;;;;;12532313;28;20836;-36
2022/03/01 16:36:32;;;;;;;22.00;9.88;;;6.90;99.90;;;;;;12535235;28;20060;-37
2022/03/01 16:42:38;;;;;;;22.67;13.18;;;6.80;99.90;;;;;;12528578;28;20041;-36
2022/03/01 16:48:42;;;;;;;19.27;10.70;;;6.70;99.90;;;;;;12533805;28;20045;-39
2022/03/01 16:54:44;;;;;;;18.10;9.43;;;6.40;99.90;;;;;;12530327;28;20041;-36
2022/03/01 17:00:46;;;;;;;15.20;9.25;;;6.20;99.90;;;;;;12535845;28;20451;-39
2022/03/01 17:06:48;;;;;;;13.93;7.80;;;6.00;99.90;;;;;;12533515;28;20459;-36
2022/03/01 17:12:50;;;;;;;14.20;8.32;;;5.90;99.90;;;;;;12531979;28;20044;-36
2022/03/01 17:18:53;;;;;;;12.90;7.55;;;5.90;99.90;;;;;;12535420;28;20143;-40
2022/03/01 17:24:55;;;;;;;16.27;8.73;;;5.80;99.90;;;;;;12527036;28;20554;-35
2022/03/01 17:30:56;;;;;;;18.60;8.63;;;5.70;99.90;;;;;;12526388;28;20054;-41
2022/03/01 17:36:59;;;;;;;12.25;7.65;;;5.60;99.90;;;;;;12509652;28;20135;-40
2022/03/01 17:43:00;;;;;;;16.13;8.77;;;5.60;99.90;;;;;;12507271;28;20049;-35
2022/03/01 17:49:04;;;;;;;15.63;8.73;;;5.60;99.90;;;;;;12530559;28;20544;-40
2022/03/01 17:55:07;;;;;;;14.10;7.78;;;5.50;99.90;;;;;;12522088;28;20049;-40
2022/03/01 18:01:09;;;;;;;13.20;8.50;;;5.40;99.90;;;;;;12510605;28;21028;-36
2022/03/01 18:07:12;;;;;;;15.32;7.95;;;5.40;99.90;;;;;;12506908;28;20076;-36
2022/03/01 18:13:14;;;;;;;14.73;8.00;;;5.40;99.90;;;;;;12516863;28;20401;-41
2022/03/01 18:19:17;;;;;;;13.13;7.88;;;5.40;99.90;;;;;;12489130;28;20136;-40
2022/03/01 18:25:19;;;;;;;15.95;8.07;;;5.40;99.90;;;;;;12526896;28;20966;-40
2022/03/01 18:31:21;;;;;;;12.35;7.07;;;5.40;99.90;;;;;;12531200;28;20057;-37
2022/03/01 18:37:23;;;;;;;12.95;6.65;;;5.30;99.90;;;;;;12527105;28;20052;-41
2022/03/01 18:43:26;;;;;;;12.57;6.25;;;5.20;99.90;;;;;;12535512;28;20055;-37
2022/03/01 18:49:28;;;;;;;14.15;6.90;;;5.10;99.90;;;;;;12539684;28;20079;-41
2022/03/01 18:55:30;;;;;;;15.18;7.85;;;5.00;99.90;;;;;;12543526;28;20052;-37
2022/03/01 19:01:32;;;;;;;13.93;7.03;;;5.00;99.90;;;;;;12534760;28;20056;-36
2022/03/01 19:07:34;;;;;;;13.52;6.75;;;4.90;99.90;;;;;;12534640;28;20044;-38
2022/03/01 19:13:37;;;;;;;14.63;7.50;;;4.80;99.90;;;;;;12521106;28;20049;-41
2022/03/01 19:19:38;;;;;;;13.60;6.97;;;4.70;99.90;;;;;;12536792;28;20114;-37
2022/03/01 19:25:41;;;;;;;16.80;7.90;;;4.70;99.90;;;;;;12522671;28;20460;-41
2022/03/01 19:31:43;;;;;;;12.77;6.53;;;4.70;99.90;;;;;;12536657;28;20045;-37
2022/03/01 19:37:45;;;;;;;13.55;6.65;;;4.60;99.90;;;;;;12538741;28;20063;-41
2022/03/01 19:43:48;;;;;;;13.25;6.68;;;4.50;99.90;;;;;;12533480;28;20080;-37
2022/03/01 19:49:51;;;;;;;13.13;6.82;;;4.50;99.90;;;;;;12535979;28;20473;-38
2022/03/01 19:55:53;;;;;;;14.40;6.88;;;4.50;99.90;;;;;;12538025;28;20045;-40
2022/03/01 20:01:55;;;;;;;13.70;6.78;;;4.50;99.90;;;;;;12537990;28;20490;-40
2022/03/01 20:07:57;;;;;;;14.57;6.97;;;4.50;99.90;;;;;;12529451;28;20048;-37
2022/03/01 20:13:59;;;;;;;16.70;7.13;;;4.50;99.90;;;;;;12535089;28;20056;-39
2022/03/01 20:20:02;;;;;;;13.43;6.80;;;4.40;99.90;;;;;;12537649;28;20055;-41
2022/03/01 20:26:06;;;;;;;12.93;6.78;;;4.20;99.90;;;;;;12531044;28;20568;-37
2022/03/01 20:32:10;;;;;;;15.10;8.20;;;4.00;99.90;;;;;;12527925;28;20049;-41
2022/03/01 20:38:13;;;;;;;13.50;7.60;;;3.90;99.90;;;;;;12530238;28;20110;-36
2022/03/01 20:44:16;;;;;;;13.88;7.63;;;3.80;99.90;;;;;;12531211;28;20078;-40
2022/03/01 20:50:20;;;;;;;16.38;8.23;;;3.60;99.90;;;;;;12528936;28;20048;-41
2022/03/01 20:56:23;;;;;;;13.90;7.13;;;3.60;99.90;;;;;;12532179;28;20102;-41
2022/03/01 21:02:25;;;;;;;13.38;7.35;;;3.60;99.90;;;;;;12533198;28;20457;-40
2022/03/01 21:08:27;;;;;;;13.90;7.90;;;3.60;99.90;;;;;;12532814;28;20052;-40
2022/03/01 21:14:29;;;;;;;17.13;8.63;;;3.50;99.90;;;;;;12531116;28;20742;-40
2022/03/01 21:20:33;;;;;;;15.15;8.73;;;3.50;99.90;;;;;;12527865;28;20049;-41
2022/03/01 21:26:35;;;;;;;23.77;12.27;;;3.60;99.90;;;;;;12509818;28;20176;-37
2022/03/01 21:32:38;;;;;;;14.93;8.02;;;3.40;99.90;;;;;;12478069;28;20130;-40
2022/03/01 21:38:40;;;;;;;13.95;7.80;;;3.50;99.90;;;;;;12477687;28;20057;-36
2022/03/01 21:44:44;;;;;;;14.75;8.40;;;3.50;99.90;;;;;;12480237;28;20049;-36
2022/03/01 21:50:46;;;;;;;17.25;8.80;;;3.50;99.90;;;;;;12479903;28;20629;-36
2022/03/01 21:56:48;;;;;;;15.00;7.80;;;3.60;99.90;;;;;;12477342;28;20147;-41
2022/03/01 22:02:51;;;;;;;14.80;7.30;;;3.70;99.90;;;;;;12479624;28;20494;-40
2022/03/01 22:08:53;;;;;;;12.95;7.10;;;3.60;99.90;;;;;;12481015;28;20119;-37
2022/03/01 22:14:55;;;;;;;14.13;7.80;;;3.60;99.90;;;;;;12486316;28;20053;-40
2022/03/01 22:20:58;;;;;;;13.68;8.05;;;3.50;99.90;;;;;;12490005;28;20071;-40
2022/03/01 22:27:00;;;;;;;13.70;8.13;;;3.50;99.90;;;;;;12515242;28;20052;-41
2022/03/01 22:33:04;;;;;;;13.50;7.60;;;3.70;99.90;;;;;;12538850;28;20515;-36
2022/03/01 22:39:09;;;;;;;16.33;8.10;;;3.60;99.90;;;;;;12543764;28;20065;-37
2022/03/01 22:45:12;;;;;;;14.13;7.30;;;3.50;99.90;;;;;;12537116;28;20409;-36
2022/03/01 22:51:14;;;;;;;10.68;6.65;;;3.60;99.90;;;;;;12543042;28;20128;-37
2022/03/01 22:57:16;;;;;;;17.67;7.85;;;3.20;99.90;;;;;;12543418;28;20048;-37
2022/03/01 23:03:18;;;;;;;13.70;7.45;;;3.30;99.90;;;;;;12538885;28;20053;-40
2022/03/01 23:09:20;;;;;;;14.93;7.80;;;3.30;99.90;;;;;;12538894;28;20838;-40
2022/03/01 23:15:22;;;;;;;15.10;8.07;;;3.40;99.90;;;;;;12537983;28;20458;-40
2022/03/01 23:21:24;;;;;;;14.57;7.63;;;3.40;99.90;;;;;;12538418;28;20134;-41
2022/03/01 23:27:27;;;;;;;15.95;7.43;;;3.30;99.90;;;;;;12536956;28;20129;-41
2022/03/01 23:33:31;;;;;;;11.80;6.88;;;3.30;99.90;;;;;;12539541;28;20049;-41
2022/03/01 23:39:36;;;;;;;15.43;7.77;;;3.40;99.90;;;;;;12539848;28;20420;-41
2022/03/01 23:45:38;;;;;;;14.93;8.05;;;3.50;99.90;;;;;;12516594;28;20471;-40
2022/03/01 23:51:40;;;;;;;14.85;8.10;;;3.60;99.90;;;;;;12536618;28;20543;-36
2022/03/01 23:57:42;;;;;;;12.85;7.45;;;3.40;99.90;;;;;;12535789;28;20041;-37
